sensor_id;sensor_type;location;lat;lon;timestamp;pressure;altitude;pressure_sealevel;temperature;humidity
85224;BME280;75619;51.316;4.824;2024-03-02T00:00:05;99714.91;;;5.77;100.00
85224;BME280;75619;51.316;4.824;2024-03-02T00:02:42;99716.34;;;5.81;100.00
85224;BME280;75619;51.316;4.824;2024-03-02T00:05:15;99709.22;;;5.83;100.00
85224;BME280;75619;51.316;4.824;2024-03-02T00:07:42;99713.09;;;5.78;100.00
85224;BME280;75619;51.316;4.824;2024-03-02T00:10:09;99715.34;;;5.71;100.00
85224;BME280;75619;51.316;4.824;2024-03-02T00:12:41;99712.59;;;5.72;100.00
85224;BME280;75619;51.316;4.824;2024-03-02T00:18:06;99716.41;;;5.68;100.00
85224;BME280;75619;51.316;4.824;2024-03-02T00:20:32;99728.66;;;5.68;100.00
85224;BME280;75619;51.316;4.824;2024-03-02T00:23:03;99714.38;;;5.72;100.00
85224;BME280;75619;51.316;4.824;2024-03-02T00:28:30;99714.59;;;5.69;100.00
85224;BME280;75619;51.316;4.824;2024-03-02T00:33:46;99722.81;;;5.64;100.00
85224;BME280;75619;51.316;4.824;2024-03-02T00:36:14;99721.25;;;5.62;100.00
85224;BME280;75619;51.316;4.824;2024-03-02T00:38:51;99730.16;;;5.59;100.00
85224;BME280;75619;51.316;4.824;2024-03-02T00:41:29;99725.03;;;5.58;100.00
85224;BME280;75619;51.316;4.824;2024-03-02T00:46:26;99722.41;;;5.58;100.00
85224;BME280;75619;51.316;4.824;2024-03-02T00:48:57;99723.75;;;5.63;100.00
85224;BME280;75619;51.316;4.824;2024-03-02T00:51:26;99740.94;;;5.67;100.00
85224;BME280;75619;51.316;4.824;2024-03-02T00:53:54;99744.97;;;5.60;100.00
85224;BME280;75619;51.316;4.824;2024-03-02T00:56:24;99742.22;;;5.62;100.00
85224;BME280;75619;51.316;4.824;2024-03-02T00:58:50;99733.41;;;5.63;100.00
85224;BME280;75619;51.316;4.824;2024-03-02T01:01:16;99742.22;;;5.62;100.00
85224;BME280;75619;51.316;4.824;2024-03-02T01:03:42;99743.88;;;5.63;100.00
85224;BME280;75619;51.316;4.824;2024-03-02T01:06:08;99760.13;;;5.68;100.00
85224;BME280;75619;51.316;4.824;2024-03-02T01:08:35;99772.28;;;5.69;100.00
85224;BME280;75619;51.316;4.824;2024-03-02T01:11:01;99761.06;;;5.67;100.00
85224;BME280;75619;51.316;4.824;2024-03-02T01:13:27;99757.09;;;5.61;100.00
85224;BME280;75619;51.316;4.824;2024-03-02T01:15:53;99752.09;;;5.58;100.00
85224;BME280;75619;51.316;4.824;2024-03-02T01:18:18;99742.41;;;5.59;100.00
85224;BME280;75619;51.316;4.824;2024-03-02T01:20:44;99736.81;;;5.52;100.00
85224;BME280;75619;51.316;4.824;2024-03-02T01:23:10;99754.00;;;5.56;100.00
85224;BME280;75619;51.316;4.824;2024-03-02T01:25:36;99763.41;;;5.59;100.00
85224;BME280;75619;51.316;4.824;2024-03-02T01:28:01;99770.31;;;5.60;100.00
85224;BME280;75619;51.316;4.824;2024-03-02T01:30:27;99754.00;;;5.56;100.00
85224;BME280;75619;51.316;4.824;2024-03-02T01:32:53;99742.34;;;5.60;100.00
85224;BME280;75619;51.316;4.824;2024-03-02T01:35:19;99739.59;;;5.62;100.00
85224;BME280;75619;51.316;4.824;2024-03-02T01:37:44;99755.53;;;5.59;100.00
85224;BME280;75619;51.316;4.824;2024-03-02T01:40:10;99750.41;;;5.57;100.00
85224;BME280;75619;51.316;4.824;2024-03-02T01:42:39;99756.38;;;5.59;100.00
85224;BME280;75619;51.316;4.824;2024-03-02T01:45:05;99760.78;;;5.59;100.00
85224;BME280;75619;51.316;4.824;2024-03-02T01:47:31;99768.03;;;5.55;100.00
85224;BME280;75619;51.316;4.824;2024-03-02T01:49:58;99763.75;;;5.54;100.00
85224;BME280;75619;51.316;4.824;2024-03-02T01:52:24;99769.91;;;5.53;100.00
85224;BME280;75619;51.316;4.824;2024-03-02T01:54:49;99764.06;;;5.50;100.00
85224;BME280;75619;51.316;4.824;2024-03-02T01:57:15;99763.94;;;5.51;100.00
85224;BME280;75619;51.316;4.824;2024-03-02T01:59:41;99765.53;;;5.54;100.00
85224;BME280;75619;51.316;4.824;2024-03-02T02:02:07;99762.91;;;5.54;100.00
85224;BME280;75619;51.316;4.824;2024-03-02T02:04:33;99760.88;;;5.57;100.00
85224;BME280;75619;51.316;4.824;2024-03-02T02:06:59;99764.69;;;5.53;100.00
85224;BME280;75619;51.316;4.824;2024-03-02T02:09:25;99761.00;;;5.56;100.00
85224;BME280;75619;51.316;4.824;2024-03-02T02:11:51;99767.81;;;5.58;100.00
85224;BME280;75619;51.316;4.824;2024-03-02T02:14:17;99768.03;;;5.55;100.00
85224;BME280;75619;51.316;4.824;2024-03-02T02:16:42;99764.34;;;5.58;100.00
85224;BME280;75619;51.316;4.824;2024-03-02T02:19:08;99766.97;;;5.58;100.00
85224;BME280;75619;51.316;4.824;2024-03-02T02:21:35;99760.03;;;5.57;100.00
85224;BME280;75619;51.316;4.824;2024-03-02T02:24:00;99758.50;;;5.54;100.00
85224;BME280;75619;51.316;4.824;2024-03-02T02:26:28;99760.28;;;5.54;100.00
85224;BME280;75619;51.316;4.824;2024-03-02T02:28:54;99755.97;;;5.53;100.00
85224;BME280;75619;51.316;4.824;2024-03-02T02:31:19;99750.72;;;5.53;100.00
85224;BME280;75619;51.316;4.824;2024-03-02T02:33:45;99755.34;;;5.49;100.00
85224;BME280;75619;51.316;4.824;2024-03-02T02:36:10;99757.88;;;5.51;100.00
85224;BME280;75619;51.316;4.824;2024-03-02T02:38:40;99756.53;;;5.45;100.00
85224;BME280;75619;51.316;4.824;2024-03-02T02:41:08;99751.91;;;5.36;100.00
85224;BME280;75619;51.316;4.824;2024-03-02T02:43:33;99756.56;;;5.33;100.00
85224;BME280;75619;51.316;4.824;2024-03-02T02:45:59;99755.69;;;5.32;100.00
85224;BME280;75619;51.316;4.824;2024-03-02T02:48:25;99751.75;;;5.27;100.00
85224;BME280;75619;51.316;4.824;2024-03-02T02:50:50;99746.19;;;5.31;100.00
85224;BME280;75619;51.316;4.824;2024-03-02T02:53:16;99751.31;;;5.33;100.00
85224;BME280;75619;51.316;4.824;2024-03-02T02:55:42;99741.66;;;5.33;100.00
85224;BME280;75619;51.316;4.824;2024-03-02T02:58:09;99751.84;;;5.38;100.00
85224;BME280;75619;51.316;4.824;2024-03-02T03:00:35;99746.25;;;5.42;100.00
85224;BME280;75619;51.316;4.824;2024-03-02T03:03:01;99742.38;;;5.48;100.00
85224;BME280;75619;51.316;4.824;2024-03-02T03:05:27;99745.41;;;5.54;100.00
85224;BME280;75619;51.316;4.824;2024-03-02T03:07:52;99754.00;;;5.56;100.00
85224;BME280;75619;51.316;4.824;2024-03-02T03:10:18;99759.22;;;5.56;100.00
85224;BME280;75619;51.316;4.824;2024-03-02T03:12:44;99753.75;;;5.59;100.00
85224;BME280;75619;51.316;4.824;2024-03-02T03:15:10;99756.63;;;5.56;100.00
85224;BME280;75619;51.316;4.824;2024-03-02T03:17:35;99753.34;;;5.53;100.00
85224;BME280;75619;51.316;4.824;2024-03-02T03:20:02;99758.59;;;5.53;100.00
85224;BME280;75619;51.316;4.824;2024-03-02T03:22:32;99750.66;;;5.54;100.00
85224;BME280;75619;51.316;4.824;2024-03-02T03:24:58;99749.56;;;5.57;100.00
85224;BME280;75619;51.316;4.824;2024-03-02T03:27:23;99750.41;;;5.57;100.00
85224;BME280;75619;51.316;4.824;2024-03-02T03:29:49;99752.09;;;5.58;100.00
85224;BME280;75619;51.316;4.824;2024-03-02T03:32:14;99747.91;;;5.56;100.00
85224;BME280;75619;51.316;4.824;2024-03-02T03:34:40;99744.56;;;5.54;100.00
85224;BME280;75619;51.316;4.824;2024-03-02T03:37:06;99756.50;;;5.58;100.00
85224;BME280;75619;51.316;4.824;2024-03-02T03:39:34;99754.59;;;5.60;100.00
85224;BME280;75619;51.316;4.824;2024-03-02T03:41:59;99754.38;;;5.63;100.00
85224;BME280;75619;51.316;4.824;2024-03-02T03:44:25;99762.47;;;5.60;100.00
85224;BME280;75619;51.316;4.824;2024-03-02T03:46:50;99755.94;;;5.65;100.00
85224;BME280;75619;51.316;4.824;2024-03-02T03:49:16;99749.34;;;5.60;100.00
85224;BME280;75619;51.316;4.824;2024-03-02T03:51:42;99749.47;;;5.58;100.00
85224;BME280;75619;51.316;4.824;2024-03-02T03:54:08;99751.25;;;5.58;100.00
85224;BME280;75619;51.316;4.824;2024-03-02T03:56:33;99759.44;;;5.53;100.00
85224;BME280;75619;51.316;4.824;2024-03-02T03:58:59;99761.00;;;5.56;100.00
85224;BME280;75619;51.316;4.824;2024-03-02T04:01:25;99749.28;;;5.49;100.00
85224;BME280;75619;51.316;4.824;2024-03-02T04:03:50;99747.94;;;5.43;100.00
85224;BME280;75619;51.316;4.824;2024-03-02T04:06:16;99750.38;;;5.34;100.00
85224;BME280;75619;51.316;4.824;2024-03-02T04:08:42;99753.84;;;5.22;100.00
85224;BME280;75619;51.316;4.824;2024-03-02T04:11:09;99758.03;;;5.12;100.00
85224;BME280;75619;51.316;4.824;2024-03-02T04:13:34;99763.59;;;5.07;100.00
85224;BME280;75619;51.316;4.824;2024-03-02T04:15:59;99762.47;;;4.99;100.00
85224;BME280;75619;51.316;4.824;2024-03-02T04:18:25;99758.59;;;4.91;100.00
85224;BME280;75619;51.316;4.824;2024-03-02T04:20:51;99766.56;;;4.90;100.00
85224;BME280;75619;51.316;4.824;2024-03-02T04:23:16;99760.47;;;4.77;100.00
85224;BME280;75619;51.316;4.824;2024-03-02T04:25:42;99780.44;;;4.78;100.00
85224;BME280;75619;51.316;4.824;2024-03-02T04:28:07;99777.19;;;4.62;100.00
85224;BME280;75619;51.316;4.824;2024-03-02T04:30:33;99777.41;;;4.59;100.00
85224;BME280;75619;51.316;4.824;2024-03-02T04:32:59;99776.38;;;4.61;100.00
85224;BME280;75619;51.316;4.824;2024-03-02T04:35:24;99781.50;;;4.63;100.00
85224;BME280;75619;51.316;4.824;2024-03-02T04:37:51;99774.56;;;4.62;100.00
85224;BME280;75619;51.316;4.824;2024-03-02T04:40:16;99782.72;;;4.57;100.00
85224;BME280;75619;51.316;4.824;2024-03-02T04:42:42;99773.53;;;4.52;100.00
85224;BME280;75619;51.316;4.824;2024-03-02T04:45:08;99774.88;;;4.45;100.00
85224;BME280;75619;51.316;4.824;2024-03-02T04:47:34;99784.06;;;4.38;100.00
85224;BME280;75619;51.316;4.824;2024-03-02T04:50:00;99785.22;;;4.34;100.00
85224;BME280;75619;51.316;4.824;2024-03-02T04:52:25;99790.75;;;4.29;100.00
85224;BME280;75619;51.316;4.824;2024-03-02T04:54:51;99789.66;;;4.19;100.00
85224;BME280;75619;51.316;4.824;2024-03-02T04:57:35;99797.69;;;4.16;100.00
85224;BME280;75619;51.316;4.824;2024-03-02T05:00:01;99804.41;;;4.20;100.00
85224;BME280;75619;51.316;4.824;2024-03-02T05:02:26;99801.59;;;4.23;100.00
85224;BME280;75619;51.316;4.824;2024-03-02T05:04:52;99801.66;;;4.36;100.00
85224;BME280;75619;51.316;4.824;2024-03-02T05:07:18;99805.44;;;4.44;100.00
85224;BME280;75619;51.316;4.824;2024-03-02T05:09:43;99804.81;;;4.53;100.00
85224;BME280;75619;51.316;4.824;2024-03-02T05:12:10;99802.75;;;4.58;100.00
85224;BME280;75619;51.316;4.824;2024-03-02T05:14:55;99801.72;;;4.61;100.00
85224;BME280;75619;51.316;4.824;2024-03-02T05:17:21;99805.91;;;4.63;100.00
85224;BME280;75619;51.316;4.824;2024-03-02T05:19:46;99804.84;;;4.66;100.00
85224;BME280;75619;51.316;4.824;2024-03-02T05:22:12;99803.28;;;4.76;100.00
85224;BME280;75619;51.316;4.824;2024-03-02T05:24:38;99803.50;;;4.85;100.00
85224;BME280;75619;51.316;4.824;2024-03-02T05:27:03;99801.00;;;4.84;100.00
85224;BME280;75619;51.316;4.824;2024-03-02T05:29:29;99809.16;;;4.79;100.00
85224;BME280;75619;51.316;4.824;2024-03-02T05:31:55;99813.66;;;4.77;100.00
85224;BME280;75619;51.316;4.824;2024-03-02T05:34:20;99818.06;;;4.77;100.00
85224;BME280;75619;51.316;4.824;2024-03-02T05:36:46;99819.63;;;4.79;100.00
85224;BME280;75619;51.316;4.824;2024-03-02T05:39:11;99826.97;;;4.87;100.00
85224;BME280;75619;51.316;4.824;2024-03-02T05:41:37;99820.69;;;4.89;100.00
85224;BME280;75619;51.316;4.824;2024-03-02T05:44:04;99819.00;;;4.88;100.00
85224;BME280;75619;51.316;4.824;2024-03-02T05:46:29;99817.66;;;4.96;100.00
85224;BME280;75619;51.316;4.824;2024-03-02T05:48:55;99814.50;;;4.90;100.00
85224;BME280;75619;51.316;4.824;2024-03-02T05:51:20;99822.34;;;4.90;100.00
85224;BME280;75619;51.316;4.824;2024-03-02T05:53:46;99817.66;;;4.96;100.00
85224;BME280;75619;51.316;4.824;2024-03-02T05:56:12;99815.16;;;4.94;100.00
85224;BME280;75619;51.316;4.824;2024-03-02T05:58:38;99821.31;;;4.93;100.00
85224;BME280;75619;51.316;4.824;2024-03-02T06:01:22;99814.31;;;4.93;100.00
85224;BME280;75619;51.316;4.824;2024-03-02T06:03:57;99820.69;;;4.89;100.00
85224;BME280;75619;51.316;4.824;2024-03-02T06:06:24;99813.38;;;4.82;100.00
85224;BME280;75619;51.316;4.824;2024-03-02T06:08:50;99811.97;;;4.76;100.00
85224;BME280;75619;51.316;4.824;2024-03-02T06:11:16;99812.06;;;4.62;100.00
85224;BME280;75619;51.316;4.824;2024-03-02T06:13:42;99805.47;;;4.57;100.00
85224;BME280;75619;51.316;4.824;2024-03-02T06:16:07;99815.69;;;4.47;100.00
85224;BME280;75619;51.316;4.824;2024-03-02T06:18:34;99825.63;;;4.42;100.00
85224;BME280;75619;51.316;4.824;2024-03-02T06:21:00;99824.97;;;4.39;100.00
85224;BME280;75619;51.316;4.824;2024-03-02T06:23:27;99828.66;;;4.36;100.00
85224;BME280;75619;51.316;4.824;2024-03-02T06:25:52;99832.69;;;4.28;100.00
85224;BME280;75619;51.316;4.824;2024-03-02T06:28:18;99830.19;;;4.26;100.00
85224;BME280;75619;51.316;4.824;2024-03-02T06:30:44;99839.06;;;4.24;100.00
85224;BME280;75619;51.316;4.824;2024-03-02T06:33:10;99830.28;;;4.25;100.00
85224;BME280;75619;51.316;4.824;2024-03-02T06:35:36;99841.03;;;4.20;100.00
85224;BME280;75619;51.316;4.824;2024-03-02T06:38:03;99844.69;;;4.18;100.00
85224;BME280;75619;51.316;4.824;2024-03-02T06:40:29;99845.63;;;4.17;100.00
85224;BME280;75619;51.316;4.824;2024-03-02T06:42:54;99847.94;;;4.21;100.00
85224;BME280;75619;51.316;4.824;2024-03-02T06:45:20;99851.41;;;4.22;100.00
85224;BME280;75619;51.316;4.824;2024-03-02T06:47:46;99850.38;;;4.24;100.00
85224;BME280;75619;51.316;4.824;2024-03-02T06:50:11;99854.66;;;4.25;100.00
85224;BME280;75619;51.316;4.824;2024-03-02T06:52:37;99849.44;;;4.25;100.00
85224;BME280;75619;51.316;4.824;2024-03-02T06:55:03;99857.38;;;4.24;100.00
85224;BME280;75619;51.316;4.824;2024-03-02T06:57:29;99857.28;;;4.25;100.00
85224;BME280;75619;51.316;4.824;2024-03-02T06:59:55;99850.38;;;4.24;100.00
85224;BME280;75619;51.316;4.824;2024-03-02T07:02:24;99852.59;;;4.30;100.00
85224;BME280;75619;51.316;4.824;2024-03-02T07:04:55;99857.16;;;4.27;100.00
85224;BME280;75619;51.316;4.824;2024-03-02T07:07:22;99864.84;;;4.30;100.00
85224;BME280;75619;51.316;4.824;2024-03-02T07:09:48;99870.69;;;4.33;100.00
85224;BME280;75619;51.316;4.824;2024-03-02T07:12:14;99872.41;;;4.34;100.00
85224;BME280;75619;51.316;4.824;2024-03-02T07:14:40;99875.63;;;4.38;100.00
85224;BME280;75619;51.316;4.824;2024-03-02T07:17:24;99876.03;;;4.32;100.00
85224;BME280;75619;51.316;4.824;2024-03-02T07:19:50;99875.09;;;4.33;100.00
85224;BME280;75619;51.316;4.824;2024-03-02T07:22:15;99880.97;;;4.36;100.00
85224;BME280;75619;51.316;4.824;2024-03-02T07:24:42;99872.19;;;4.37;100.00
85224;BME280;75619;51.316;4.824;2024-03-02T07:27:09;99874.31;;;4.45;100.00
85224;BME280;75619;51.316;4.824;2024-03-02T07:29:35;99877.56;;;4.48;100.00
85224;BME280;75619;51.316;4.824;2024-03-02T07:32:01;99870.06;;;4.56;100.00
85224;BME280;75619;51.316;4.824;2024-03-02T07:34:27;99880.31;;;4.59;100.00
85224;BME280;75619;51.316;4.824;2024-03-02T07:36:53;99869.66;;;4.62;100.00
85224;BME280;75619;51.316;4.824;2024-03-02T07:39:18;99869.47;;;4.65;100.00
85224;BME280;75619;51.316;4.824;2024-03-02T07:41:45;99874.47;;;4.68;100.00
85224;BME280;75619;51.316;4.824;2024-03-02T07:44:11;99873.34;;;4.72;100.00
85224;BME280;75619;51.316;4.824;2024-03-02T07:46:43;99865.72;;;4.82;100.00
85224;BME280;75619;51.316;4.824;2024-03-02T07:49:09;99866.13;;;4.88;100.00
85224;BME280;75619;51.316;4.824;2024-03-02T07:51:35;99880.81;;;4.91;100.00
85224;BME280;75619;51.316;4.824;2024-03-02T07:54:02;99864.69;;;4.97;100.00
85224;BME280;75619;51.316;4.824;2024-03-02T07:56:27;99872.88;;;5.05;100.00
85224;BME280;75619;51.316;4.824;2024-03-02T07:58:53;99868.91;;;5.12;100.00
85224;BME280;75619;51.316;4.824;2024-03-02T08:01:20;99870.81;;;5.23;100.00
85224;BME280;75619;51.316;4.824;2024-03-02T08:03:45;99863.25;;;5.31;100.00
85224;BME280;75619;51.316;4.824;2024-03-02T08:06:18;99856.66;;;5.38;100.00
85224;BME280;75619;51.316;4.824;2024-03-02T08:08:47;99860.19;;;5.49;100.00
85224;BME280;75619;51.316;4.824;2024-03-02T08:11:12;99855.16;;;5.59;100.00
85224;BME280;75619;51.316;4.824;2024-03-02T08:13:38;99851.28;;;5.64;100.00
85224;BME280;75619;51.316;4.824;2024-03-02T08:16:05;99851.47;;;5.74;100.00
85224;BME280;75619;51.316;4.824;2024-03-02T08:18:33;99851.88;;;5.81;100.00
85224;BME280;75619;51.316;4.824;2024-03-02T08:20:59;99852.31;;;5.87;100.00
85224;BME280;75619;51.316;4.824;2024-03-02T08:23:25;99851.75;;;5.95;100.00
85224;BME280;75619;51.316;4.824;2024-03-02T08:25:51;99849.06;;;6.20;100.00
85224;BME280;75619;51.316;4.824;2024-03-02T08:28:17;99850.34;;;6.62;100.00
85224;BME280;75619;51.316;4.824;2024-03-02T08:30:43;99849.72;;;6.93;100.00
85224;BME280;75619;51.316;4.824;2024-03-02T08:33:09;99842.13;;;7.23;100.00
85224;BME280;75619;51.316;4.824;2024-03-02T08:35:34;99831.03;;;7.42;100.00
85224;BME280;75619;51.316;4.824;2024-03-02T08:38:04;99830.69;;;7.57;100.00
85224;BME280;75619;51.316;4.824;2024-03-02T08:40:31;99828.41;;;7.75;100.00
85224;BME280;75619;51.316;4.824;2024-03-02T08:42:59;99819.16;;;8.02;100.00
85224;BME280;75619;51.316;4.824;2024-03-02T08:45:25;99827.06;;;8.02;100.00
85224;BME280;75619;51.316;4.824;2024-03-02T08:47:51;99825.50;;;8.11;100.00
85224;BME280;75619;51.316;4.824;2024-03-02T08:50:18;99830.13;;;8.30;100.00
85224;BME280;75619;51.316;4.824;2024-03-02T08:52:43;99834.06;;;8.35;100.00
85224;BME280;75619;51.316;4.824;2024-03-02T08:55:09;99833.63;;;8.51;100.00
85224;BME280;75619;51.316;4.824;2024-03-02T08:57:36;99845.97;;;8.50;100.00
85224;BME280;75619;51.316;4.824;2024-03-02T09:00:03;99841.91;;;8.78;100.00
85224;BME280;75619;51.316;4.824;2024-03-02T09:02:30;99845.75;;;8.74;100.00
85224;BME280;75619;51.316;4.824;2024-03-02T09:04:56;99838.94;;;8.92;100.00
85224;BME280;75619;51.316;4.824;2024-03-02T09:07:22;99840.31;;;8.86;100.00
85224;BME280;75619;51.316;4.824;2024-03-02T09:09:48;99841.66;;;8.81;100.00
85224;BME280;75619;51.316;4.824;2024-03-02T09:12:13;99844.22;;;8.92;100.00
85224;BME280;75619;51.316;4.824;2024-03-02T09:14:40;99842.50;;;9.02;100.00
85224;BME280;75619;51.316;4.824;2024-03-02T09:17:06;99830.25;;;9.22;100.00
85224;BME280;75619;51.316;4.824;2024-03-02T09:19:31;99828.38;;;9.33;100.00
85224;BME280;75619;51.316;4.824;2024-03-02T09:21:57;99825.56;;;9.25;100.00
85224;BME280;75619;51.316;4.824;2024-03-02T09:24:24;99827.41;;;9.04;100.00
85224;BME280;75619;51.316;4.824;2024-03-02T09:26:50;99835.78;;;8.98;100.00
85224;BME280;75619;51.316;4.824;2024-03-02T09:29:15;99833.75;;;9.02;100.00
85224;BME280;75619;51.316;4.824;2024-03-02T09:31:42;99834.50;;;8.92;100.00
85224;BME280;75619;51.316;4.824;2024-03-02T09:34:08;99837.94;;;9.04;100.00
85224;BME280;75619;51.316;4.824;2024-03-02T09:36:34;99830.47;;;9.09;100.00
85224;BME280;75619;51.316;4.824;2024-03-02T09:39:00;99832.06;;;9.01;100.00
85224;BME280;75619;51.316;4.824;2024-03-02T09:41:26;99829.81;;;8.96;100.00
85224;BME280;75619;51.316;4.824;2024-03-02T09:43:51;99832.84;;;8.91;100.00
85224;BME280;75619;51.316;4.824;2024-03-02T09:46:17;99830.94;;;8.93;100.00
85224;BME280;75619;51.316;4.824;2024-03-02T09:48:44;99825.94;;;9.00;100.00
85224;BME280;75619;51.316;4.824;2024-03-02T09:51:11;99819.16;;;8.98;100.00
85224;BME280;75619;51.316;4.824;2024-03-02T09:53:37;99819.59;;;9.03;100.00
85224;BME280;75619;51.316;4.824;2024-03-02T09:56:03;99820.91;;;9.08;100.00
85224;BME280;75619;51.316;4.824;2024-03-02T09:58:30;99816.63;;;9.17;100.00
85224;BME280;75619;51.316;4.824;2024-03-02T10:00:56;99808.53;;;9.09;100.00
85224;BME280;75619;51.316;4.824;2024-03-02T10:03:24;99822.41;;;9.11;100.00
85224;BME280;75619;51.316;4.824;2024-03-02T10:05:50;99809.03;;;9.23;100.00
85224;BME280;75619;51.316;4.824;2024-03-02T10:08:17;99803.38;;;9.28;100.00
85224;BME280;75619;51.316;4.824;2024-03-02T10:10:42;99803.72;;;9.44;100.00
85224;BME280;75619;51.316;4.824;2024-03-02T10:13:10;99804.63;;;9.33;100.00
85224;BME280;75619;51.316;4.824;2024-03-02T10:15:36;99802.66;;;9.56;100.00
85224;BME280;75619;51.316;4.824;2024-03-02T10:18:04;99795.19;;;9.70;100.00
85224;BME280;75619;51.316;4.824;2024-03-02T10:20:30;99799.53;;;9.71;100.00
85224;BME280;75619;51.316;4.824;2024-03-02T10:23:12;99796.09;;;9.81;100.00
85224;BME280;75619;51.316;4.824;2024-03-02T10:25:38;99792.63;;;9.90;100.00
85224;BME280;75619;51.316;4.824;2024-03-02T10:28:04;99794.16;;;9.83;100.00
85224;BME280;75619;51.316;4.824;2024-03-02T10:30:33;99792.63;;;9.80;100.00
85224;BME280;75619;51.316;4.824;2024-03-02T10:33:00;99787.59;;;9.77;100.00
85224;BME280;75619;51.316;4.824;2024-03-02T10:35:27;99785.00;;;9.87;100.00
85224;BME280;75619;51.316;4.824;2024-03-02T10:37:53;99797.06;;;9.89;100.00
85224;BME280;75619;51.316;4.824;2024-03-02T10:40:21;99773.75;;;9.94;100.00
85224;BME280;75619;51.316;4.824;2024-03-02T10:42:47;99781.25;;;9.99;100.00
85224;BME280;75619;51.316;4.824;2024-03-02T10:45:15;99788.91;;;10.02;100.00
85224;BME280;75619;51.316;4.824;2024-03-02T10:47:42;99790.03;;;10.09;100.00
85224;BME280;75619;51.316;4.824;2024-03-02T10:50:08;99775.75;;;10.21;100.00
85224;BME280;75619;51.316;4.824;2024-03-02T10:52:37;99782.84;;;10.20;100.00
85224;BME280;75619;51.316;4.824;2024-03-02T10:55:05;99782.84;;;10.11;100.00
85224;BME280;75619;51.316;4.824;2024-03-02T10:57:45;99790.06;;;10.18;100.00
85224;BME280;75619;51.316;4.824;2024-03-02T11:00:15;99787.44;;;10.28;100.00
85224;BME280;75619;51.316;4.824;2024-03-02T11:02:52;99785.38;;;10.50;100.00
85224;BME280;75619;51.316;4.824;2024-03-02T11:05:26;99782.31;;;10.45;100.00
85224;BME280;75619;51.316;4.824;2024-03-02T11:08:00;99784.78;;;10.47;100.00
85224;BME280;75619;51.316;4.824;2024-03-02T11:10:29;99781.88;;;10.50;100.00
85224;BME280;75619;51.316;4.824;2024-03-02T11:13:05;99787.88;;;10.52;100.00
85224;BME280;75619;51.316;4.824;2024-03-02T11:15:31;99774.09;;;10.58;100.00
85224;BME280;75619;51.316;4.824;2024-03-02T11:18:01;99777.28;;;10.71;100.00
85224;BME280;75619;51.316;4.824;2024-03-02T11:20:29;99776.16;;;10.83;100.00
85224;BME280;75619;51.316;4.824;2024-03-02T11:22:56;99769.50;;;10.79;100.00
85224;BME280;75619;51.316;4.824;2024-03-02T11:25:27;99771.97;;;10.81;100.00
85224;BME280;75619;51.316;4.824;2024-03-02T11:33:07;99765.81;;;10.99;100.00
85224;BME280;75619;51.316;4.824;2024-03-02T11:35:37;99761.13;;;10.84;100.00
85224;BME280;75619;51.316;4.824;2024-03-02T11:38:03;99751.78;;;10.89;100.00
85224;BME280;75619;51.316;4.824;2024-03-02T11:40:30;99753.28;;;11.01;100.00
85224;BME280;75619;51.316;4.824;2024-03-02T11:42:56;99748.00;;;11.11;100.00
85224;BME280;75619;51.316;4.824;2024-03-02T11:45:28;99744.19;;;11.13;100.00
85224;BME280;75619;51.316;4.824;2024-03-02T11:47:55;99742.44;;;11.04;100.00
85224;BME280;75619;51.316;4.824;2024-03-02T11:50:34;99733.00;;;10.92;100.00
85224;BME280;75619;51.316;4.824;2024-03-02T11:53:01;99736.34;;;10.94;100.00
85224;BME280;75619;51.316;4.824;2024-03-02T11:55:26;99724.66;;;10.87;100.00
85224;BME280;75619;51.316;4.824;2024-03-02T11:57:52;99722.03;;;10.87;100.00
85224;BME280;75619;51.316;4.824;2024-03-02T12:00:19;99722.03;;;10.87;100.00
85224;BME280;75619;51.316;4.824;2024-03-02T12:03:03;99707.91;;;11.06;100.00
85224;BME280;75619;51.316;4.824;2024-03-02T12:05:30;99713.09;;;10.98;100.00
85224;BME280;75619;51.316;4.824;2024-03-02T12:08:03;99715.41;;;11.10;100.00
85224;BME280;75619;51.316;4.824;2024-03-02T12:10:30;99708.38;;;11.28;100.00
85224;BME280;75619;51.316;4.824;2024-03-02T12:13:00;99700.94;;;11.42;100.00
85224;BME280;75619;51.316;4.824;2024-03-02T12:15:27;99689.06;;;11.46;100.00
85224;BME280;75619;51.316;4.824;2024-03-02T12:17:57;99682.81;;;11.64;100.00
85224;BME280;75619;51.316;4.824;2024-03-02T12:20:24;99679.25;;;11.56;100.00
85224;BME280;75619;51.316;4.824;2024-03-02T12:22:54;99682.00;;;11.64;100.00
85224;BME280;75619;51.316;4.824;2024-03-02T12:25:20;99674.69;;;11.75;100.00
85224;BME280;75619;51.316;4.824;2024-03-02T12:27:47;99666.91;;;11.74;100.00
85224;BME280;75619;51.316;4.824;2024-03-02T12:30:16;99662.38;;;11.84;100.00
85224;BME280;75619;51.316;4.824;2024-03-02T12:32:42;99660.41;;;11.86;100.00
85224;BME280;75619;51.316;4.824;2024-03-02T12:35:08;99660.56;;;12.02;100.00
85224;BME280;75619;51.316;4.824;2024-03-02T12:37:47;99655.63;;;12.07;100.00
85224;BME280;75619;51.316;4.824;2024-03-02T12:40:14;99652.53;;;11.76;100.00
85224;BME280;75619;51.316;4.824;2024-03-02T12:42:40;99653.63;;;11.83;100.00
85224;BME280;75619;51.316;4.824;2024-03-02T12:45:10;99658.44;;;11.88;100.00
85224;BME280;75619;51.316;4.824;2024-03-02T12:47:36;99663.13;;;11.94;100.00
85224;BME280;75619;51.316;4.824;2024-03-02T12:50:03;99658.97;;;12.09;100.00
85224;BME280;75619;51.316;4.824;2024-03-02T12:52:30;99649.16;;;12.27;100.00
85224;BME280;75619;51.316;4.824;2024-03-02T12:54:58;99644.47;;;12.21;100.00
85224;BME280;75619;51.316;4.824;2024-03-02T12:57:33;99643.97;;;12.17;100.00
85224;BME280;75619;51.316;4.824;2024-03-02T13:00:00;99635.06;;;12.18;100.00
85224;BME280;75619;51.316;4.824;2024-03-02T13:02:30;99642.91;;;12.10;100.00
85224;BME280;75619;51.316;4.824;2024-03-02T13:04:57;99638.72;;;12.26;100.00
85224;BME280;75619;51.316;4.824;2024-03-02T13:07:24;99634.28;;;12.26;100.00
85224;BME280;75619;51.316;4.824;2024-03-02T13:09:51;99626.53;;;12.33;100.00
85224;BME280;75619;51.316;4.824;2024-03-02T13:12:17;99621.88;;;12.27;100.00